createdAt,value
2018-01-26T00:01:04.880Z,6.57
2018-01-26T00:03:32.983Z,5.33
2018-01-26T00:06:04.110Z,5.80
2018-01-26T00:08:32.220Z,6.07
2018-01-26T00:11:08.924Z,5.93
2018-01-26T00:13:37.029Z,5.60
2018-01-26T00:16:05.115Z,5.20
2018-01-26T00:18:33.228Z,5.60
2018-01-26T00:21:01.336Z,5.70
2018-01-26T00:23:29.482Z,5.77
2018-01-26T00:25:57.533Z,5.87
2018-01-26T00:28:25.653Z,5.87
2018-01-26T00:30:53.751Z,5.27
2018-01-26T00:33:21.868Z,5.87
2018-01-26T00:35:49.956Z,5.93
2018-01-26T00:38:18.045Z,5.50
2018-01-26T00:40:46.170Z,5.37
2018-01-26T00:43:14.257Z,5.47
2018-01-26T00:45:42.352Z,5.43
2018-01-26T00:48:10.464Z,5.77
2018-01-26T00:50:38.590Z,5.10
2018-01-26T00:53:06.665Z,6.43
2018-01-26T00:55:34.780Z,5.43
2018-01-26T00:58:02.887Z,5.10
2018-01-26T01:00:31.000Z,6.07
2018-01-26T01:02:59.091Z,5.43
2018-01-26T01:05:27.195Z,6.10
2018-01-26T01:07:55.286Z,5.77
2018-01-26T01:10:23.417Z,5.70
2018-01-26T01:12:51.505Z,6.03
2018-01-26T01:15:19.597Z,5.60
2018-01-26T01:17:47.716Z,6.53
2018-01-26T01:20:15.818Z,5.93
2018-01-26T01:22:43.931Z,5.40
2018-01-26T01:25:12.035Z,6.90
2018-01-26T01:27:40.138Z,6.03
2018-01-26T01:30:08.239Z,6.47
2018-01-26T01:32:36.344Z,5.73
2018-01-26T01:35:04.455Z,6.47
2018-01-26T01:37:32.556Z,6.40
2018-01-26T01:40:00.672Z,6.37
2018-01-26T01:42:28.761Z,6.67
2018-01-26T01:44:56.871Z,6.23
2018-01-26T01:47:28.430Z,5.87
2018-01-26T01:49:56.527Z,5.70
2018-01-26T01:52:25.806Z,6.47
2018-01-26T01:54:53.925Z,7.00
2018-01-26T01:57:22.030Z,6.00
2018-01-26T01:59:50.143Z,6.27
2018-01-26T02:02:18.229Z,6.67
2018-01-26T02:04:46.417Z,6.40
2018-01-26T02:07:14.501Z,6.27
2018-01-26T02:09:42.628Z,6.10
2018-01-26T02:12:10.736Z,6.23
2018-01-26T02:14:38.825Z,6.30
2018-01-26T02:17:06.944Z,6.13
2018-01-26T02:19:35.030Z,6.00
2018-01-26T02:22:03.148Z,6.30
2018-01-26T02:24:31.253Z,6.30
2018-01-26T02:26:59.357Z,6.70
2018-01-26T02:29:27.457Z,6.60
2018-01-26T02:31:55.568Z,6.47
2018-01-26T02:34:23.655Z,6.57
2018-01-26T02:36:51.745Z,6.20
2018-01-26T02:39:19.863Z,5.90
2018-01-26T02:41:47.980Z,6.77
2018-01-26T02:44:16.083Z,5.50
2018-01-26T02:46:44.185Z,5.53
2018-01-26T02:49:12.303Z,6.07
2018-01-26T02:51:40.392Z,5.50
2018-01-26T02:54:08.496Z,5.40
2018-01-26T02:56:36.597Z,5.50
2018-01-26T02:59:04.708Z,5.60
2018-01-26T03:01:32.808Z,5.07
2018-01-26T03:04:00.913Z,6.00
2018-01-26T03:06:29.014Z,5.60
2018-01-26T03:08:57.101Z,5.43
2018-01-26T03:11:25.232Z,5.53
2018-01-26T03:13:53.336Z,5.43
2018-01-26T03:16:21.451Z,5.70
2018-01-26T03:18:49.547Z,5.40
2018-01-26T03:21:17.633Z,5.50
2018-01-26T03:23:45.733Z,5.83
2018-01-26T03:26:13.825Z,6.00
2018-01-26T03:28:41.930Z,6.27
2018-01-26T03:31:10.015Z,6.10
2018-01-26T03:33:38.113Z,5.70
2018-01-26T03:36:06.231Z,6.13
2018-01-26T03:38:34.344Z,6.00
2018-01-26T03:41:02.452Z,5.50
2018-01-26T03:43:30.568Z,6.27
2018-01-26T03:45:58.675Z,5.70
2018-01-26T03:48:26.766Z,6.17
2018-01-26T03:50:54.871Z,6.17
2018-01-26T03:53:22.966Z,6.33
2018-01-26T03:55:51.067Z,6.63
2018-01-26T03:58:19.153Z,5.83
2018-01-26T04:00:47.268Z,6.57
2018-01-26T04:03:31.697Z,6.73
2018-01-26T04:05:59.799Z,6.40
2018-01-26T04:08:27.901Z,6.50
2018-01-26T04:10:56.009Z,6.80
2018-01-26T04:13:28.220Z,7.33
2018-01-26T04:15:56.325Z,6.73
2018-01-26T04:18:24.431Z,7.30
2018-01-26T04:20:52.535Z,6.30
2018-01-26T04:23:20.642Z,6.90
2018-01-26T04:25:48.741Z,6.90
2018-01-26T04:28:16.834Z,7.00
2018-01-26T04:30:44.943Z,7.40
2018-01-26T04:33:13.048Z,6.77
2018-01-26T04:35:41.138Z,6.40
2018-01-26T04:38:09.242Z,6.87
2018-01-26T04:40:37.333Z,6.63
2018-01-26T04:43:05.435Z,6.47
2018-01-26T04:45:33.525Z,7.23
2018-01-26T04:48:01.652Z,6.93
2018-01-26T04:50:29.752Z,6.83
2018-01-26T04:52:57.845Z,7.20
2018-01-26T04:55:25.945Z,7.27
2018-01-26T04:57:54.072Z,6.57
2018-01-26T05:00:22.187Z,7.27
2018-01-26T05:02:50.284Z,7.00
2018-01-26T05:05:18.387Z,6.77
2018-01-26T05:07:50.383Z,6.80
2018-01-26T05:10:18.491Z,6.50
2018-01-26T05:12:46.609Z,7.10
2018-01-26T05:15:14.716Z,6.63
2018-01-26T05:17:42.829Z,7.23
2018-01-26T05:20:10.929Z,6.87
2018-01-26T05:22:39.044Z,6.43
2018-01-26T05:25:07.133Z,7.00
2018-01-26T05:27:35.249Z,6.50
2018-01-26T05:30:03.338Z,6.73
2018-01-26T05:32:31.456Z,6.90
2018-01-26T05:35:04.757Z,7.00
2018-01-26T05:40:28.342Z,6.90
2018-01-26T05:42:56.446Z,6.80
2018-01-26T05:45:24.541Z,6.97
2018-01-26T05:47:52.648Z,7.23
2018-01-26T05:50:20.746Z,7.93
2018-01-26T05:52:48.855Z,7.50
2018-01-26T05:55:16.949Z,7.23
2018-01-26T05:57:45.065Z,7.43
2018-01-26T06:00:13.170Z,7.43
2018-01-26T06:02:41.361Z,7.00
2018-01-26T06:05:09.721Z,7.70
2018-01-26T06:07:37.938Z,7.43
2018-01-26T06:10:06.126Z,8.37
2018-01-26T06:12:34.288Z,8.20
2018-01-26T06:15:02.466Z,8.13
2018-01-26T06:17:30.675Z,8.20
2018-01-26T06:19:58.808Z,7.90
2018-01-26T06:22:26.954Z,9.10
2018-01-26T06:25:00.750Z,7.93
2018-01-26T06:27:28.912Z,8.07
2018-01-26T06:29:57.020Z,8.70
2018-01-26T06:32:25.107Z,8.70
2018-01-26T06:34:55.177Z,8.03
2018-01-26T06:37:23.280Z,7.80
2018-01-26T06:39:51.366Z,8.30
2018-01-26T06:45:12.579Z,7.90
2018-01-26T06:47:40.696Z,8.33
2018-01-26T06:50:08.808Z,8.33
2018-01-26T06:52:36.942Z,8.60
2018-01-26T06:55:05.057Z,7.53
2018-01-26T06:57:33.147Z,8.10
2018-01-26T07:00:01.313Z,7.53
2018-01-26T07:02:40.086Z,8.37
2018-01-26T07:05:18.781Z,7.70
2018-01-26T07:07:50.723Z,8.50
2018-01-26T07:10:18.845Z,8.00
2018-01-26T07:12:47.868Z,7.40
2018-01-26T07:15:15.976Z,7.83
2018-01-26T07:17:44.078Z,8.17
2018-01-26T07:20:12.187Z,8.73
2018-01-26T07:22:40.282Z,7.53
2018-01-26T07:25:08.398Z,7.93
2018-01-26T07:27:36.501Z,8.17
2018-01-26T07:30:04.601Z,8.03
2018-01-26T07:32:32.697Z,8.33
2018-01-26T07:35:00.808Z,8.60
2018-01-26T07:37:28.942Z,8.43
2018-01-26T07:39:57.990Z,7.63
2018-01-26T07:42:26.112Z,8.93
2018-01-26T07:44:55.151Z,8.93
2018-01-26T07:47:23.245Z,8.73
2018-01-26T07:49:51.382Z,8.57
2018-01-26T07:52:19.489Z,8.63
2018-01-26T07:54:47.585Z,8.50
2018-01-26T07:57:15.678Z,9.20
2018-01-26T07:59:43.782Z,8.73
2018-01-26T08:02:11.893Z,8.67
2018-01-26T08:04:39.993Z,8.33
2018-01-26T08:07:10.011Z,7.77
2018-01-26T08:09:38.105Z,8.83
2018-01-26T08:12:06.227Z,8.00
2018-01-26T08:14:34.327Z,8.60
2018-01-26T08:17:03.297Z,9.20
2018-01-26T08:19:31.412Z,7.83
2018-01-26T08:21:59.503Z,8.67
2018-01-26T08:24:27.624Z,9.03
2018-01-26T08:26:55.718Z,8.67
2018-01-26T08:29:23.844Z,9.10
2018-01-26T08:31:51.950Z,8.97
2018-01-26T08:34:20.056Z,9.00
2018-01-26T08:36:48.176Z,8.27
2018-01-26T08:39:16.283Z,9.20
2018-01-26T08:41:44.403Z,8.87
2018-01-26T08:44:12.505Z,9.70
2018-01-26T08:46:40.611Z,9.43
2018-01-26T08:49:08.728Z,8.70
2018-01-26T08:51:36.832Z,8.70
2018-01-26T08:54:05.926Z,9.83
2018-01-26T08:56:36.008Z,8.63
2018-01-26T08:59:04.124Z,8.37
2018-01-26T09:01:34.179Z,8.83
2018-01-26T09:04:02.282Z,8.27
2018-01-26T09:06:30.401Z,9.20
2018-01-26T09:08:58.500Z,9.00
2018-01-26T09:11:26.614Z,8.20
2018-01-26T09:14:08.817Z,8.40
2018-01-26T09:16:36.918Z,7.77
2018-01-26T09:19:22.314Z,7.63
2018-01-26T09:21:55.419Z,8.90
2018-01-26T09:24:36.457Z,8.03
2018-01-26T09:27:04.580Z,8.87
2018-01-26T09:29:32.673Z,8.07
2018-01-26T09:32:12.471Z,9.53
2018-01-26T09:34:40.599Z,9.20
2018-01-26T09:37:13.838Z,9.23
2018-01-26T09:39:41.933Z,9.40
2018-01-26T09:42:10.035Z,9.47
2018-01-26T09:47:37.354Z,9.13
2018-01-26T09:50:05.464Z,8.00
2018-01-26T09:52:33.589Z,8.23
2018-01-26T09:55:01.698Z,9.03
2018-01-26T09:57:29.811Z,8.07
2018-01-26T10:00:12.041Z,9.03
2018-01-26T10:02:40.170Z,9.20
2018-01-26T10:05:08.289Z,9.27
2018-01-26T10:07:36.405Z,10.00
2018-01-26T10:10:04.508Z,9.33
2018-01-26T10:12:32.614Z,8.87
2018-01-26T10:15:00.736Z,10.27
2018-01-26T10:17:28.823Z,9.67
2018-01-26T10:19:56.942Z,10.00
2018-01-26T10:22:25.043Z,9.60
2018-01-26T10:24:53.189Z,10.03
2018-01-26T10:27:21.308Z,10.00
2018-01-26T10:29:49.422Z,9.47
2018-01-26T10:32:17.527Z,9.63
2018-01-26T10:34:45.614Z,9.10
2018-01-26T10:37:13.726Z,9.50
2018-01-26T10:39:41.840Z,10.37
2018-01-26T10:42:09.941Z,10.80
2018-01-26T10:44:38.062Z,10.87
2018-01-26T10:47:06.157Z,10.53
2018-01-26T10:49:34.287Z,10.30
2018-01-26T10:52:02.412Z,11.40
2018-01-26T10:54:30.526Z,11.47
2018-01-26T10:56:58.641Z,10.70
2018-01-26T10:59:26.789Z,11.00
2018-01-26T11:01:54.891Z,11.40
2018-01-26T11:04:23.016Z,10.17
2018-01-26T11:06:51.189Z,11.63
2018-01-26T11:09:19.252Z,11.23
2018-01-26T11:11:47.361Z,11.47
2018-01-26T11:14:15.457Z,11.20
2018-01-26T11:16:43.566Z,10.73
2018-01-26T11:19:11.679Z,11.30
2018-01-26T11:21:39.769Z,13.03
2018-01-26T11:24:07.905Z,10.30
2018-01-26T11:26:36.010Z,11.03
2018-01-26T11:29:04.122Z,10.67
2018-01-26T11:31:32.249Z,11.73
2018-01-26T11:34:00.372Z,10.87
2018-01-26T11:36:28.489Z,12.80
2018-01-26T11:38:56.590Z,11.70
2018-01-26T11:41:24.704Z,11.73
2018-01-26T11:43:52.814Z,11.63
2018-01-26T11:46:20.944Z,10.37
2018-01-26T11:48:49.050Z,11.10
2018-01-26T11:51:17.168Z,11.53
2018-01-26T11:53:45.262Z,10.37
2018-01-26T11:56:13.374Z,11.63
2018-01-26T11:58:41.485Z,11.80
2018-01-26T12:01:09.604Z,10.20
2018-01-26T12:03:37.715Z,10.83
2018-01-26T12:06:05.838Z,11.50
2018-01-26T12:08:33.957Z,11.67
2018-01-26T12:11:02.072Z,12.00
2018-01-26T12:13:30.196Z,11.17
2018-01-26T12:15:58.314Z,11.77
2018-01-26T12:18:26.460Z,12.00
2018-01-26T12:20:54.561Z,12.60
2018-01-26T12:23:23.585Z,12.37
2018-01-26T12:25:51.708Z,12.83
2018-01-26T12:28:21.784Z,12.80
2018-01-26T12:30:49.919Z,13.57
2018-01-26T12:33:22.136Z,13.47
2018-01-26T12:35:50.272Z,14.13
2018-01-26T12:38:18.395Z,14.03
2018-01-26T12:40:46.512Z,12.63
2018-01-26T12:43:14.647Z,14.47
2018-01-26T12:45:42.750Z,14.33
2018-01-26T12:48:21.153Z,14.03
2018-01-26T12:50:49.282Z,14.33
2018-01-26T12:53:17.400Z,14.40
2018-01-26T12:55:45.521Z,15.77
2018-01-26T12:58:13.622Z,15.00
2018-01-26T13:00:41.751Z,14.77
2018-01-26T13:03:09.859Z,16.73
2018-01-26T13:05:38.926Z,15.20
2018-01-26T13:08:07.056Z,15.00
2018-01-26T13:10:35.160Z,15.67
2018-01-26T13:13:03.265Z,15.83
2018-01-26T13:15:31.389Z,13.77
2018-01-26T13:17:59.514Z,14.40
2018-01-26T13:20:27.635Z,15.07
2018-01-26T13:22:58.921Z,15.23
2018-01-26T13:25:27.026Z,14.43
2018-01-26T13:28:05.762Z,16.80
2018-01-26T13:30:33.884Z,15.33
2018-01-26T13:33:02.003Z,15.83
2018-01-26T13:35:34.114Z,15.77
2018-01-26T13:38:02.244Z,15.27
2018-01-26T13:40:37.454Z,15.20
2018-01-26T13:43:08.569Z,15.33
2018-01-26T13:45:36.730Z,15.20
2018-01-26T13:48:04.878Z,13.93
2018-01-26T13:50:50.175Z,14.17
2018-01-26T13:53:18.295Z,13.30
2018-01-26T13:55:46.414Z,14.37
2018-01-26T13:58:31.414Z,12.80
2018-01-26T14:00:59.501Z,12.80
2018-01-26T14:03:27.618Z,13.43
2018-01-26T14:05:55.732Z,12.63
2018-01-26T14:08:23.866Z,14.10
2018-01-26T14:10:55.343Z,14.13
2018-01-26T14:13:23.467Z,13.13
2018-01-26T14:15:57.504Z,13.20
2018-01-26T14:18:26.601Z,13.67
2018-01-26T14:20:54.739Z,14.60
2018-01-26T14:23:28.466Z,14.77
2018-01-26T14:25:56.602Z,13.83
2018-01-26T14:28:24.699Z,15.07
2018-01-26T14:30:52.841Z,14.73
2018-01-26T14:33:20.945Z,14.37
2018-01-26T14:36:13.369Z,14.17
2018-01-26T14:38:42.448Z,14.10
2018-01-26T14:41:17.439Z,16.27
2018-01-26T14:43:51.422Z,13.13
2018-01-26T14:46:19.578Z,13.93
2018-01-26T14:48:48.736Z,13.50
2018-01-26T14:51:17.207Z,14.43
2018-01-26T14:53:45.445Z,15.17
2018-01-26T14:56:15.638Z,15.27
2018-01-26T14:58:45.088Z,15.07
2018-01-26T15:01:14.128Z,14.20
2018-01-26T15:03:42.233Z,13.80
2018-01-26T15:06:17.420Z,13.57
2018-01-26T15:08:45.529Z,15.10
2018-01-26T15:11:13.841Z,14.33
2018-01-26T15:13:43.939Z,14.37
2018-01-26T15:16:12.052Z,14.03
2018-01-26T15:18:41.188Z,14.27
2018-01-26T15:21:09.334Z,14.30
2018-01-26T15:23:37.523Z,14.60
2018-01-26T15:26:10.434Z,15.30
2018-01-26T15:28:38.658Z,15.17
2018-01-26T15:31:08.698Z,16.00
2018-01-26T15:33:40.475Z,15.47
2018-01-26T15:36:08.586Z,16.40
2018-01-26T15:38:41.005Z,15.73
2018-01-26T15:41:16.341Z,14.20
2018-01-26T15:43:44.481Z,12.50
2018-01-26T15:46:18.686Z,13.20
2018-01-26T15:48:46.820Z,14.50
2018-01-26T15:51:15.900Z,12.70
2018-01-26T15:53:44.029Z,13.70
2018-01-26T15:56:14.098Z,14.87
2018-01-26T15:58:42.207Z,12.23
2018-01-26T16:01:14.029Z,13.87
2018-01-26T16:03:42.138Z,13.80
2018-01-26T16:06:13.456Z,12.80
2018-01-26T16:08:41.559Z,13.37
2018-01-26T16:11:11.652Z,12.07
2018-01-26T16:13:39.765Z,12.53
2018-01-26T16:16:14.099Z,11.90
2018-01-26T16:18:42.221Z,12.30
2018-01-26T16:21:10.335Z,14.17
2018-01-26T16:23:41.921Z,11.80
2018-01-26T16:26:10.035Z,12.03
2018-01-26T16:28:49.492Z,12.43
2018-01-26T16:31:18.534Z,11.87
2018-01-26T16:34:00.515Z,11.43
2018-01-26T16:36:28.619Z,12.50
2018-01-26T16:38:56.747Z,13.10
2018-01-26T16:41:25.763Z,11.73
2018-01-26T16:43:55.778Z,13.90
2018-01-26T16:46:23.900Z,12.60
2018-01-26T16:48:52.003Z,12.20
2018-01-26T16:51:23.693Z,12.73
2018-01-26T16:53:58.387Z,12.47
2018-01-26T16:56:28.454Z,13.87
2018-01-26T16:58:56.576Z,12.50
2018-01-26T17:01:24.700Z,11.93
2018-01-26T17:03:52.819Z,12.37
2018-01-26T17:06:21.844Z,13.40
2018-01-26T17:08:49.964Z,12.20
2018-01-26T17:11:21.872Z,12.67
2018-01-26T17:13:51.932Z,11.97
2018-01-26T17:16:23.661Z,12.13
2018-01-26T17:18:53.783Z,11.07
2018-01-26T17:21:21.878Z,12.10
2018-01-26T17:23:49.991Z,13.33
2018-01-26T17:26:28.708Z,12.20
2018-01-26T17:29:00.811Z,11.80
2018-01-26T17:31:28.913Z,12.50
2018-01-26T17:33:57.991Z,12.43
2018-01-26T17:36:30.863Z,13.20
2018-01-26T17:38:59.008Z,15.20
2018-01-26T17:41:27.087Z,13.97
2018-01-26T17:43:55.208Z,14.03
2018-01-26T17:46:23.297Z,15.73
2018-01-26T17:48:51.410Z,16.23
2018-01-26T17:51:19.506Z,15.50
2018-01-26T17:53:47.607Z,16.43
2018-01-26T17:56:15.742Z,16.13
2018-01-26T17:58:43.860Z,18.07
2018-01-26T18:01:11.964Z,15.57
2018-01-26T18:03:40.068Z,15.33
2018-01-26T18:06:08.188Z,16.93
2018-01-26T18:08:36.295Z,13.40
2018-01-26T18:11:05.407Z,15.17
2018-01-26T18:13:33.524Z,13.73
2018-01-26T18:16:02.572Z,13.80
2018-01-26T18:18:30.767Z,19.47
2018-01-26T18:20:58.963Z,20.73
2018-01-26T18:23:27.092Z,19.90
2018-01-26T18:28:48.761Z,15.57
2018-01-26T18:31:21.304Z,14.00
2018-01-26T18:33:49.419Z,12.97
2018-01-26T18:36:30.340Z,14.30
2018-01-26T18:38:58.456Z,14.07
2018-01-26T18:41:26.573Z,14.67
2018-01-26T18:44:14.028Z,14.90
2018-01-26T18:46:42.135Z,14.77
2018-01-26T18:49:10.251Z,14.33
2018-01-26T18:51:42.116Z,14.73
2018-01-26T18:54:10.256Z,15.50
2018-01-26T18:56:45.189Z,13.80
2018-01-26T18:59:13.308Z,18.33
2018-01-26T19:01:41.738Z,17.67
2018-01-26T19:04:09.851Z,17.83
2018-01-26T19:06:37.975Z,18.50
2018-01-26T19:09:08.082Z,17.47
2018-01-26T19:11:36.201Z,17.50
2018-01-26T19:14:04.336Z,16.40
2018-01-26T19:16:36.459Z,16.20
2018-01-26T19:19:04.631Z,17.37
2018-01-26T19:21:32.752Z,17.13
2018-01-26T19:24:06.838Z,16.33
2018-01-26T19:26:34.940Z,16.03
2018-01-26T19:29:04.017Z,17.37
2018-01-26T19:31:34.141Z,17.27
2018-01-26T19:34:02.260Z,16.80
2018-01-26T19:36:44.670Z,16.57
2018-01-26T19:39:12.778Z,15.63
2018-01-26T19:41:40.893Z,15.50
2018-01-26T19:44:09.939Z,14.80
2018-01-26T19:46:38.045Z,15.27
2018-01-26T19:49:07.075Z,16.37
2018-01-26T19:51:35.199Z,13.93
2018-01-26T19:54:06.935Z,14.20
2018-01-26T19:56:35.021Z,14.73
2018-01-26T19:59:04.107Z,13.60
2018-01-26T20:01:32.219Z,14.53
2018-01-26T20:04:06.300Z,14.90
2018-01-26T20:06:51.870Z,14.60
2018-01-26T20:09:25.900Z,15.77
2018-01-26T20:11:59.706Z,15.30
2018-01-26T20:14:27.837Z,16.60
2018-01-26T20:16:55.943Z,14.93
2018-01-26T20:19:24.046Z,15.73
2018-01-26T20:21:53.090Z,16.73
2018-01-26T20:24:26.799Z,17.97
2018-01-26T20:26:54.924Z,16.40
2018-01-26T20:29:29.770Z,17.77
2018-01-26T20:31:57.889Z,18.93
2018-01-26T20:34:25.999Z,17.67
2018-01-26T20:36:56.057Z,17.87
2018-01-26T20:39:24.170Z,17.77
2018-01-26T20:41:55.861Z,17.47
2018-01-26T20:44:23.988Z,16.50
2018-01-26T20:46:52.096Z,16.03
2018-01-26T20:49:23.270Z,16.03
2018-01-26T20:51:51.373Z,15.17
2018-01-26T20:54:19.490Z,15.73
2018-01-26T20:56:48.540Z,15.20
2018-01-26T20:59:16.673Z,14.53
2018-01-26T21:02:03.674Z,14.93
2018-01-26T21:04:42.898Z,15.27
2018-01-26T21:07:36.222Z,14.37
2018-01-26T21:10:04.340Z,16.20
2018-01-26T21:12:36.322Z,14.27
2018-01-26T21:15:04.439Z,15.20
2018-01-26T21:17:32.567Z,14.60
2018-01-26T21:20:00.671Z,14.40
2018-01-26T21:22:28.783Z,13.73
2018-01-26T21:27:52.312Z,13.87
2018-01-26T21:30:20.414Z,15.57
2018-01-26T21:32:50.525Z,14.17
2018-01-26T21:35:18.641Z,14.47
2018-01-26T21:37:57.983Z,14.77
2018-01-26T21:40:26.999Z,13.97
2018-01-26T21:43:04.781Z,14.10
2018-01-26T21:45:33.782Z,14.67
2018-01-26T21:48:01.894Z,15.30
2018-01-26T21:50:43.422Z,14.27
2018-01-26T21:53:13.462Z,15.80
2018-01-26T21:55:41.563Z,15.47
2018-01-26T21:58:09.657Z,15.67
2018-01-26T22:00:37.772Z,16.27
2018-01-26T22:03:05.879Z,15.20
2018-01-26T22:05:33.991Z,15.03
2018-01-26T22:10:54.988Z,15.00
2018-01-26T22:13:23.099Z,16.27
2018-01-26T22:15:51.215Z,15.77
2018-01-26T22:18:19.313Z,14.53
2018-01-26T22:20:47.421Z,15.27
2018-01-26T22:23:15.534Z,14.97
2018-01-26T22:25:43.641Z,15.43
2018-01-26T22:28:15.686Z,14.93
2018-01-26T22:30:43.778Z,14.63
2018-01-26T22:33:29.608Z,15.37
2018-01-26T22:35:57.715Z,14.77
2018-01-26T22:38:27.807Z,15.47
2018-01-26T22:40:55.927Z,15.83
2018-01-26T22:46:17.315Z,15.27
2018-01-26T22:48:50.725Z,14.87
2018-01-26T22:51:18.857Z,15.53
2018-01-26T22:53:47.978Z,15.57
2018-01-26T22:56:16.091Z,15.53
2018-01-26T22:58:44.198Z,16.43
2018-01-26T23:01:15.990Z,17.03
2018-01-26T23:03:44.090Z,16.53
2018-01-26T23:06:12.213Z,15.83
2018-01-26T23:08:40.374Z,16.20
2018-01-26T23:11:10.414Z,17.63
2018-01-26T23:13:38.532Z,16.20
2018-01-26T23:16:06.657Z,15.47
2018-01-26T23:18:34.754Z,15.33
2018-01-26T23:21:02.857Z,16.67
2018-01-26T23:23:30.985Z,15.73
2018-01-26T23:26:04.487Z,15.20
2018-01-26T23:28:32.597Z,16.70
2018-01-26T23:34:00.094Z,16.40
2018-01-26T23:36:34.892Z,15.73
2018-01-26T23:39:03.010Z,16.10
2018-01-26T23:41:31.146Z,15.50
2018-01-26T23:44:14.024Z,16.77
2018-01-26T23:46:42.130Z,15.70
2018-01-26T23:49:14.773Z,16.33
2018-01-26T23:51:42.892Z,16.53
2018-01-26T23:54:10.985Z,15.33
2018-01-26T23:56:51.497Z,15.93
2018-01-26T23:59:19.607Z,16.90
